Terminal Aerodrome Forecast
Issued by NWS Bismarck, ND

Home | Current Version | Previous Version | Graphics & Text | Print | Product List | Glossary On
Versions: 1 2 3 4 5 6 7 8 9 10 11 12 13 14 15 16 17 18 19 20 21 22 23
000
FTUS43 KBIS 211700
TAFISN
TAF
KISN 211740Z 2118/2218 16004KT P6SM OVC080
     FM212200 VRB03KT P6SM VCSH BKN045 OVC070
      TEMPO 2122/2202 -RAPL SCT035 OVC050
     FM220200 02007KT 3SM -SN BKN020 OVC030
     FM220600 33011KT 3SM -SN SCT008 OVC012=

USA.gov is the U.S. government's official web portal to all federal, state and local government web resources and services.